Aviation Digital Data Service (ADDS)

Output produced by TAFs form (1131 UTC 19 January 2018)
found at http://www.aviationweather.gov/adds/tafs/
 
RJCK 191100Z 05004KT 9999 FEW020 BKN040 M05/M09 Q1016
TAF RJCK 191113Z 1912/2018 05004KT 9999 FEW015 BKN040 
     BECMG 1922/2000 19010KT 
     BECMG 2012/2015 26009KT